createdAt,value
2022-10-22T00:00:33.890Z,1003.04
2022-10-22T00:01:33.885Z,1003.04
2022-10-22T00:02:33.880Z,1003.05
2022-10-22T00:03:33.862Z,1003.05
2022-10-22T00:04:35.465Z,1003.02
2022-10-22T00:05:33.827Z,1002.99
2022-10-22T00:06:33.830Z,1003.02
2022-10-22T00:07:33.798Z,1003.03
2022-10-22T00:08:33.847Z,1003.02
2022-10-22T00:09:33.781Z,1003.00
2022-10-22T00:10:33.760Z,1003.01
2022-10-22T00:11:33.755Z,1003.04
2022-10-22T00:12:33.778Z,1003.00
2022-10-22T00:13:33.769Z,1003.00
2022-10-22T00:14:33.723Z,1002.94
2022-10-22T00:15:33.711Z,1002.98
2022-10-22T00:16:33.700Z,1003.01
2022-10-22T00:17:33.703Z,1003.03
2022-10-22T00:18:33.677Z,1003.01
2022-10-22T00:19:33.674Z,1003.03
2022-10-22T00:20:33.651Z,1002.99
2022-10-22T00:21:33.647Z,1002.96
2022-10-22T00:22:33.630Z,1002.96
2022-10-22T00:23:33.654Z,1002.95
2022-10-22T00:24:33.610Z,1002.97
2022-10-22T00:25:33.624Z,1002.97
2022-10-22T00:26:33.587Z,1002.95
2022-10-22T00:27:33.596Z,1002.93
2022-10-22T00:28:33.592Z,1002.87
2022-10-22T00:29:33.548Z,1002.84
2022-10-22T00:30:33.541Z,1002.82
2022-10-22T00:31:33.545Z,1002.80
2022-10-22T00:32:33.531Z,1002.85
2022-10-22T00:33:33.524Z,1002.89
2022-10-22T00:34:33.515Z,1002.94
2022-10-22T00:35:33.484Z,1002.95
2022-10-22T00:36:33.475Z,1002.94
2022-10-22T00:37:33.465Z,1002.93
2022-10-22T00:38:33.465Z,1002.90
2022-10-22T00:39:33.467Z,1002.88
2022-10-22T00:40:33.433Z,1002.84
2022-10-22T00:41:33.420Z,1002.77
2022-10-22T00:42:33.422Z,1002.74
2022-10-22T00:43:33.399Z,1002.69
2022-10-22T00:44:33.412Z,1002.70
2022-10-22T00:45:33.381Z,1002.73
2022-10-22T00:46:33.363Z,1002.76
2022-10-22T00:47:33.355Z,1002.77
2022-10-22T00:48:33.336Z,1002.87
2022-10-22T00:49:33.328Z,1002.85
2022-10-22T00:50:33.332Z,1002.88
2022-10-22T00:51:33.317Z,1002.89
2022-10-22T00:52:33.320Z,1002.86
2022-10-22T00:53:33.299Z,1002.80
2022-10-22T00:54:33.271Z,1002.79
2022-10-22T00:55:33.266Z,1002.81
2022-10-22T00:56:33.271Z,1002.81
2022-10-22T00:57:33.246Z,1002.76
2022-10-22T00:58:33.234Z,1002.72
2022-10-22T00:59:33.235Z,1002.69
2022-10-22T01:00:33.318Z,1002.71
2022-10-22T01:01:33.214Z,1002.68
2022-10-22T01:02:33.200Z,1002.71
2022-10-22T01:03:33.197Z,1002.69
2022-10-22T01:04:33.176Z,1002.69
2022-10-22T01:05:33.154Z,1002.76
2022-10-22T01:06:33.144Z,1002.68
2022-10-22T01:07:33.155Z,1002.66
2022-10-22T01:08:33.192Z,1002.67
2022-10-22T01:09:33.102Z,1002.69
2022-10-22T01:10:33.094Z,1002.64
2022-10-22T01:11:33.090Z,1002.68
2022-10-22T01:12:33.071Z,1002.66
2022-10-22T01:13:33.068Z,1002.67
2022-10-22T01:14:33.073Z,1002.67
2022-10-22T01:15:33.043Z,1002.68
2022-10-22T01:16:33.055Z,1002.67
2022-10-22T01:17:33.028Z,1002.69
2022-10-22T01:18:33.003Z,1002.71
2022-10-22T01:19:32.999Z,1002.69
2022-10-22T01:20:33.015Z,1002.71
2022-10-22T01:21:33.004Z,1002.72
2022-10-22T01:22:32.960Z,1002.73
2022-10-22T01:23:32.957Z,1002.74
2022-10-22T01:24:32.953Z,1002.73
2022-10-22T01:25:32.932Z,1002.67
2022-10-22T01:26:32.923Z,1002.71
2022-10-22T01:27:32.916Z,1002.73
2022-10-22T01:28:32.897Z,1002.72
2022-10-22T01:29:32.897Z,1002.76
2022-10-22T01:30:32.883Z,1002.82
2022-10-22T01:31:32.859Z,1002.83
2022-10-22T01:32:32.874Z,1002.82
2022-10-22T01:33:32.857Z,1002.80
2022-10-22T01:34:32.832Z,1002.79
2022-10-22T01:36:32.805Z,1002.79
2022-10-22T01:37:32.811Z,1002.75
2022-10-22T01:38:32.794Z,1002.72
2022-10-22T01:39:32.793Z,1002.77
2022-10-22T01:40:32.759Z,1002.77
2022-10-22T01:41:32.756Z,1002.85
2022-10-22T01:42:32.735Z,1002.79
2022-10-22T01:43:32.740Z,1002.79
2022-10-22T01:44:32.803Z,1002.76
2022-10-22T01:45:32.733Z,1002.77
2022-10-22T01:46:32.698Z,1002.73
2022-10-22T01:47:32.695Z,1002.73
2022-10-22T01:48:32.707Z,1002.75
2022-10-22T01:49:32.659Z,1002.75
2022-10-22T01:50:32.676Z,1002.78
2022-10-22T01:51:32.643Z,1002.76
2022-10-22T01:52:32.633Z,1002.78
2022-10-22T01:53:32.682Z,1002.81
2022-10-22T01:54:32.611Z,1002.80
2022-10-22T01:55:32.608Z,1002.79
2022-10-22T01:56:32.592Z,1002.77
2022-10-22T01:57:32.576Z,1002.77
2022-10-22T01:58:32.566Z,1002.71
2022-10-22T01:59:32.578Z,1002.73
2022-10-22T02:00:32.587Z,1002.76
2022-10-22T02:01:32.543Z,1002.75
2022-10-22T02:02:32.524Z,1002.72
2022-10-22T02:03:32.514Z,1002.72
2022-10-22T02:04:32.531Z,1002.73
2022-10-22T02:05:32.493Z,1002.75
2022-10-22T02:06:32.481Z,1002.71
2022-10-22T02:07:32.458Z,1002.70
2022-10-22T02:08:32.527Z,1002.72
2022-10-22T02:09:32.451Z,1002.68
2022-10-22T02:10:32.430Z,1002.71
2022-10-22T02:11:32.422Z,1002.74
2022-10-22T02:12:32.413Z,1002.66
2022-10-22T02:13:32.412Z,1002.73
2022-10-22T02:14:32.382Z,1002.75
2022-10-22T02:15:32.378Z,1002.74
2022-10-22T02:16:32.367Z,1002.71
2022-10-22T02:17:32.347Z,1002.72
2022-10-22T02:18:35.302Z,1002.69
2022-10-22T02:19:33.344Z,1002.71
2022-10-22T02:20:32.350Z,1002.69
2022-10-22T02:21:32.309Z,1002.72
2022-10-22T02:22:32.320Z,1002.71
2022-10-22T02:23:32.355Z,1002.69
2022-10-22T02:24:32.277Z,1002.69
2022-10-22T02:25:32.282Z,1002.69
2022-10-22T02:26:32.253Z,1002.65
2022-10-22T02:27:32.241Z,1002.69
2022-10-22T02:28:32.230Z,1002.67
2022-10-22T02:29:32.231Z,1002.65
2022-10-22T02:30:32.218Z,1002.66
2022-10-22T02:31:32.220Z,1002.68
2022-10-22T02:32:32.198Z,1002.69
2022-10-22T02:33:32.172Z,1002.69
2022-10-22T02:34:32.181Z,1002.68
2022-10-22T02:35:32.156Z,1002.67
2022-10-22T02:36:32.159Z,1002.68
2022-10-22T02:37:32.137Z,1002.72
2022-10-22T02:38:32.124Z,1002.73
2022-10-22T02:39:32.118Z,1002.75
2022-10-22T02:40:32.104Z,1002.77
2022-10-22T02:41:32.090Z,1002.73
2022-10-22T02:42:32.083Z,1002.69
2022-10-22T02:43:32.072Z,1002.69
2022-10-22T02:44:32.049Z,1002.71
2022-10-22T02:45:32.043Z,1002.73
2022-10-22T02:46:32.029Z,1002.73
2022-10-22T02:47:32.038Z,1002.72
2022-10-22T02:48:32.010Z,1002.70
2022-10-22T02:49:32.014Z,1002.71
2022-10-22T02:50:31.994Z,1002.75
2022-10-22T02:51:31.986Z,1002.77
2022-10-22T02:52:31.988Z,1002.79
2022-10-22T02:53:31.947Z,1002.80
2022-10-22T02:54:31.943Z,1002.77
2022-10-22T02:55:31.966Z,1002.75
2022-10-22T02:56:31.919Z,1002.75
2022-10-22T02:57:31.910Z,1002.73
2022-10-22T02:58:31.899Z,1002.79
2022-10-22T02:59:31.880Z,1002.79
2022-10-22T03:00:31.965Z,1002.78
2022-10-22T03:01:31.889Z,1002.79
2022-10-22T03:02:31.852Z,1002.83
2022-10-22T03:03:31.845Z,1002.89
2022-10-22T03:04:31.855Z,1002.87
2022-10-22T03:05:31.838Z,1002.92
2022-10-22T03:06:31.814Z,1002.92
2022-10-22T03:07:31.808Z,1002.92
2022-10-22T03:08:31.921Z,1002.88
2022-10-22T03:09:31.775Z,1002.94
2022-10-22T03:10:31.765Z,1002.95
2022-10-22T03:11:31.755Z,1002.97
2022-10-22T03:12:31.743Z,1003.02
2022-10-22T03:13:31.732Z,1003.06
2022-10-22T03:14:31.726Z,1003.02
2022-10-22T03:15:31.733Z,1003.04
2022-10-22T03:16:31.701Z,1003.09
2022-10-22T03:17:31.703Z,1003.06
2022-10-22T03:18:31.689Z,1003.04
2022-10-22T03:19:31.702Z,1003.03
2022-10-22T03:20:31.651Z,1003.05
2022-10-22T03:21:31.649Z,1003.04
2022-10-22T03:22:31.630Z,1003.02
2022-10-22T03:23:31.643Z,1003.02
2022-10-22T03:24:31.630Z,1003.02
2022-10-22T03:25:31.595Z,1003.06
2022-10-22T03:26:31.608Z,1003.08
2022-10-22T03:27:31.575Z,1003.08
2022-10-22T03:28:31.560Z,1003.05
2022-10-22T03:29:31.573Z,1003.06
2022-10-22T03:30:31.540Z,1003.06
2022-10-22T03:31:31.573Z,1003.07
2022-10-22T03:32:31.539Z,1003.07
2022-10-22T03:33:31.506Z,1003.09
2022-10-22T03:34:31.500Z,1003.04
2022-10-22T03:35:31.481Z,1003.02
2022-10-22T03:36:31.480Z,1003.04
2022-10-22T03:37:31.483Z,1003.03
2022-10-22T03:38:31.461Z,1003.06
2022-10-22T03:39:31.435Z,1003.00
2022-10-22T03:40:31.463Z,1003.01
2022-10-22T03:41:31.449Z,1003.09
2022-10-22T03:42:31.406Z,1003.12
2022-10-22T03:43:31.418Z,1003.14
2022-10-22T03:44:31.375Z,1003.16
2022-10-22T03:45:31.452Z,1003.18
2022-10-22T03:46:31.372Z,1003.13
2022-10-22T03:47:31.367Z,1003.17
2022-10-22T03:48:31.340Z,1003.16
2022-10-22T03:49:31.333Z,1003.18
2022-10-22T03:50:31.314Z,1003.17
2022-10-22T03:51:31.307Z,1003.19
2022-10-22T03:52:31.325Z,1003.18
2022-10-22T03:53:31.285Z,1003.21
2022-10-22T03:54:31.337Z,1003.20
2022-10-22T03:55:31.291Z,1003.21
2022-10-22T03:56:31.276Z,1003.24
2022-10-22T03:57:31.236Z,1003.26
2022-10-22T03:58:31.232Z,1003.30
2022-10-22T03:59:31.218Z,1003.31
2022-10-22T04:00:31.206Z,1003.30
2022-10-22T04:01:31.255Z,1003.34
2022-10-22T04:02:31.186Z,1003.34
2022-10-22T04:03:31.182Z,1003.38
2022-10-22T04:04:31.154Z,1003.37
2022-10-22T04:05:31.167Z,1003.39
2022-10-22T04:06:31.149Z,1003.34
2022-10-22T04:07:31.124Z,1003.35
2022-10-22T04:08:31.197Z,1003.30
2022-10-22T04:09:31.104Z,1003.33
2022-10-22T04:10:31.102Z,1003.35
2022-10-22T04:11:31.098Z,1003.37
2022-10-22T04:12:31.095Z,1003.38
2022-10-22T04:13:31.059Z,1003.43
2022-10-22T04:14:31.039Z,1003.46
2022-10-22T04:15:31.031Z,1003.42
2022-10-22T04:16:31.051Z,1003.43
2022-10-22T04:17:31.010Z,1003.44
2022-10-22T04:18:31.043Z,1003.48
2022-10-22T04:19:30.984Z,1003.43
2022-10-22T04:20:30.989Z,1003.47
2022-10-22T04:21:30.971Z,1003.50
2022-10-22T04:22:30.966Z,1003.53
2022-10-22T04:23:30.956Z,1003.54
2022-10-22T04:24:30.966Z,1003.56
2022-10-22T04:25:30.924Z,1003.54
2022-10-22T04:26:30.911Z,1003.51
2022-10-22T04:27:30.894Z,1003.55
2022-10-22T04:28:30.917Z,1003.57
2022-10-22T04:29:30.886Z,1003.60
2022-10-22T04:30:30.869Z,1003.59
2022-10-22T04:31:30.879Z,1003.63
2022-10-22T04:32:30.853Z,1003.63
2022-10-22T04:33:30.836Z,1003.60
2022-10-22T04:34:30.831Z,1003.63
2022-10-22T04:35:30.812Z,1003.60
2022-10-22T04:36:30.806Z,1003.56
2022-10-22T04:37:30.812Z,1003.62
2022-10-22T04:38:30.776Z,1003.56
2022-10-22T04:39:30.772Z,1003.54
2022-10-22T04:40:30.775Z,1003.57
2022-10-22T04:41:30.764Z,1003.63
2022-10-22T04:42:30.729Z,1003.61
2022-10-22T04:43:30.742Z,1003.63
2022-10-22T04:44:30.739Z,1003.59
2022-10-22T04:45:30.707Z,1003.66
2022-10-22T04:46:30.690Z,1003.59
2022-10-22T04:47:30.687Z,1003.64
2022-10-22T04:48:30.661Z,1003.61
2022-10-22T04:49:30.654Z,1003.64
2022-10-22T04:50:30.648Z,1003.65
2022-10-22T04:51:30.631Z,1003.66
2022-10-22T04:52:30.650Z,1003.68
2022-10-22T04:53:30.611Z,1003.68
2022-10-22T04:54:33.042Z,1003.67
2022-10-22T04:56:30.569Z,1003.66
2022-10-22T04:57:30.569Z,1003.70
2022-10-22T04:58:30.550Z,1003.73
2022-10-22T04:59:30.566Z,1003.68
2022-10-22T05:00:30.545Z,1003.73
2022-10-22T05:01:30.626Z,1003.70
2022-10-22T05:02:30.534Z,1003.71
2022-10-22T05:03:30.506Z,1003.75
2022-10-22T05:04:30.510Z,1003.73
2022-10-22T05:05:30.493Z,1003.73
2022-10-22T05:06:30.501Z,1003.76
2022-10-22T05:07:30.478Z,1003.76
2022-10-22T05:08:30.550Z,1003.82
2022-10-22T05:09:30.471Z,1003.79
2022-10-22T05:10:30.423Z,1003.83
2022-10-22T05:11:30.418Z,1003.83
2022-10-22T05:12:30.410Z,1003.83
2022-10-22T05:13:30.379Z,1003.78
2022-10-22T05:14:30.372Z,1003.77
2022-10-22T05:15:30.367Z,1003.85
2022-10-22T05:16:30.374Z,1003.85
2022-10-22T05:17:30.349Z,1003.86
2022-10-22T05:18:30.335Z,1003.86
2022-10-22T05:19:30.330Z,1003.81
2022-10-22T05:20:30.332Z,1003.85
2022-10-22T05:21:30.323Z,1003.86
2022-10-22T05:22:30.309Z,1003.86
2022-10-22T05:23:30.266Z,1003.85
2022-10-22T05:24:30.287Z,1003.83
2022-10-22T05:25:30.258Z,1003.86
2022-10-22T05:26:30.258Z,1003.84
2022-10-22T05:27:30.231Z,1003.81
2022-10-22T05:28:30.216Z,1003.81
2022-10-22T05:29:30.228Z,1003.80
2022-10-22T05:30:30.193Z,1003.83
2022-10-22T05:31:30.192Z,1003.82
2022-10-22T05:32:30.211Z,1003.79
2022-10-22T05:33:30.163Z,1003.84
2022-10-22T05:34:30.164Z,1003.82
2022-10-22T05:35:30.170Z,1003.84
2022-10-22T05:36:30.140Z,1003.84
2022-10-22T05:37:30.125Z,1003.87
2022-10-22T05:38:30.103Z,1003.88
2022-10-22T05:39:30.107Z,1003.94
2022-10-22T05:40:31.360Z,1003.97
2022-10-22T05:41:30.093Z,1004.02
2022-10-22T05:42:30.073Z,1004.00
2022-10-22T05:43:30.068Z,1004.03
2022-10-22T05:44:30.043Z,1004.03
2022-10-22T05:45:30.041Z,1004.03
2022-10-22T05:46:30.050Z,1004.04
2022-10-22T05:47:30.007Z,1004.07
2022-10-22T05:48:30.119Z,1004.10
2022-10-22T05:49:30.017Z,1004.11
2022-10-22T05:50:29.980Z,1004.10
2022-10-22T05:51:29.976Z,1004.13
2022-10-22T05:52:29.949Z,1004.14
2022-10-22T05:53:29.957Z,1004.18
2022-10-22T05:54:29.967Z,1004.20
2022-10-22T05:55:29.951Z,1004.21
2022-10-22T05:56:29.899Z,1004.26
2022-10-22T05:57:29.881Z,1004.25
2022-10-22T05:58:29.894Z,1004.31
2022-10-22T05:59:29.915Z,1004.31
2022-10-22T06:00:29.867Z,1004.31
2022-10-22T06:01:29.867Z,1004.35
2022-10-22T06:02:29.869Z,1004.41
2022-10-22T06:03:29.834Z,1004.38
2022-10-22T06:04:29.867Z,1004.41
2022-10-22T06:05:29.801Z,1004.43
2022-10-22T06:06:29.787Z,1004.46
2022-10-22T06:07:29.796Z,1004.43
2022-10-22T06:08:29.771Z,1004.45
2022-10-22T06:09:29.815Z,1004.45
2022-10-22T06:10:29.760Z,1004.46
2022-10-22T06:11:32.550Z,1004.50
2022-10-22T06:12:30.731Z,1004.55
2022-10-22T06:13:29.711Z,1004.50
2022-10-22T06:14:29.716Z,1004.56
2022-10-22T06:15:29.694Z,1004.54
2022-10-22T06:16:29.681Z,1004.56
2022-10-22T06:17:29.682Z,1004.60
2022-10-22T06:18:29.647Z,1004.62
2022-10-22T06:19:29.645Z,1004.60
2022-10-22T06:20:29.673Z,1004.64
2022-10-22T06:21:29.620Z,1004.69
2022-10-22T06:22:29.622Z,1004.70
2022-10-22T06:23:29.625Z,1004.67
2022-10-22T06:24:29.601Z,1004.72
2022-10-22T06:25:29.566Z,1004.75
2022-10-22T06:26:29.564Z,1004.75
2022-10-22T06:27:29.562Z,1004.82
2022-10-22T06:28:29.568Z,1004.80
2022-10-22T06:29:29.558Z,1004.81
2022-10-22T06:30:30.044Z,1004.82
2022-10-22T06:31:29.539Z,1004.83
2022-10-22T06:32:29.508Z,1004.87
2022-10-22T06:33:29.502Z,1004.83
2022-10-22T06:34:29.498Z,1004.88
2022-10-22T06:35:29.467Z,1004.92
2022-10-22T06:36:29.506Z,1004.90
2022-10-22T06:37:29.459Z,1004.96
2022-10-22T06:38:29.467Z,1004.98
2022-10-22T06:39:29.413Z,1005.04
2022-10-22T06:40:29.443Z,1005.04
2022-10-22T06:41:29.811Z,1005.07
2022-10-22T06:42:29.376Z,1005.08
2022-10-22T06:43:29.365Z,1005.15
2022-10-22T06:44:29.376Z,1005.17
2022-10-22T06:45:29.346Z,1005.16
2022-10-22T06:46:29.351Z,1005.22
2022-10-22T06:47:29.366Z,1005.24
2022-10-22T06:48:29.326Z,1005.22
2022-10-22T06:49:29.295Z,1005.20
2022-10-22T06:50:29.308Z,1005.19
2022-10-22T06:51:29.294Z,1005.17
2022-10-22T06:52:29.332Z,1005.18
2022-10-22T06:53:29.265Z,1005.16
2022-10-22T06:54:29.256Z,1005.17
2022-10-22T06:55:29.252Z,1005.21
2022-10-22T06:56:29.228Z,1005.22
2022-10-22T06:57:29.237Z,1005.24
2022-10-22T06:58:29.201Z,1005.24
2022-10-22T06:59:29.194Z,1005.23
2022-10-22T07:00:29.324Z,1005.23
2022-10-22T07:01:29.216Z,1005.28
2022-10-22T07:02:29.183Z,1005.25
2022-10-22T07:03:29.152Z,1005.26
2022-10-22T07:04:29.137Z,1005.30
2022-10-22T07:05:29.135Z,1005.28
2022-10-22T07:06:29.146Z,1005.31
2022-10-22T07:07:29.116Z,1005.29
2022-10-22T07:08:29.121Z,1005.29
2022-10-22T07:09:29.107Z,1005.35
2022-10-22T07:10:30.716Z,1005.34
2022-10-22T07:11:29.082Z,1005.33
2022-10-22T07:12:29.042Z,1005.37
2022-10-22T07:13:29.054Z,1005.36
2022-10-22T07:14:29.043Z,1005.44
2022-10-22T07:15:29.017Z,1005.39
2022-10-22T07:16:31.327Z,1005.43
2022-10-22T07:17:29.103Z,1005.43
2022-10-22T07:18:28.969Z,1005.49
2022-10-22T07:19:28.981Z,1005.47
2022-10-22T07:20:28.994Z,1005.52
2022-10-22T07:21:28.960Z,1005.54
2022-10-22T07:22:28.931Z,1005.58
2022-10-22T07:23:28.949Z,1005.51
2022-10-22T07:24:28.944Z,1005.56
2022-10-22T07:25:28.897Z,1005.55
2022-10-22T07:26:28.934Z,1005.57
2022-10-22T07:27:28.891Z,1005.54
2022-10-22T07:28:28.892Z,1005.60
2022-10-22T07:29:28.864Z,1005.59
2022-10-22T07:30:28.836Z,1005.61
2022-10-22T07:31:28.833Z,1005.60
2022-10-22T07:32:28.823Z,1005.63
2022-10-22T07:33:28.834Z,1005.65
2022-10-22T07:34:28.806Z,1005.70
2022-10-22T07:35:28.827Z,1005.70
2022-10-22T07:36:28.779Z,1005.70
2022-10-22T07:37:28.763Z,1005.75
2022-10-22T07:38:28.769Z,1005.76
2022-10-22T07:39:28.779Z,1005.79
2022-10-22T07:40:28.780Z,1005.89
2022-10-22T07:41:28.719Z,1005.89
2022-10-22T07:43:28.715Z,1005.89
2022-10-22T07:44:28.718Z,1005.91
2022-10-22T07:45:28.685Z,1005.92
2022-10-22T07:46:28.668Z,1005.94
2022-10-22T07:47:28.651Z,1005.93
2022-10-22T07:48:28.655Z,1005.97
2022-10-22T07:49:28.653Z,1005.95
2022-10-22T07:50:28.646Z,1005.98
2022-10-22T07:51:28.654Z,1005.96
2022-10-22T07:52:28.587Z,1005.95
2022-10-22T07:53:28.621Z,1005.93
2022-10-22T07:54:28.595Z,1005.94
2022-10-22T07:55:28.590Z,1005.96
2022-10-22T07:56:28.574Z,1005.94
2022-10-22T07:57:28.562Z,1005.95
2022-10-22T07:58:28.537Z,1005.99
2022-10-22T07:59:28.535Z,1005.98
2022-10-22T08:00:28.512Z,1006.04
2022-10-22T08:01:28.634Z,1006.04
2022-10-22T08:02:28.500Z,1006.04
2022-10-22T08:03:28.516Z,1006.07
2022-10-22T08:04:28.485Z,1006.10
2022-10-22T08:05:28.463Z,1006.17
2022-10-22T08:06:28.475Z,1006.18
2022-10-22T08:07:28.443Z,1006.21
2022-10-22T08:08:30.643Z,1006.22
2022-10-22T08:09:28.415Z,1006.23
2022-10-22T08:10:28.392Z,1006.24
2022-10-22T08:11:28.386Z,1006.25
2022-10-22T08:12:28.445Z,1006.30
2022-10-22T08:13:28.380Z,1006.30
2022-10-22T08:14:28.361Z,1006.35
2022-10-22T08:15:28.351Z,1006.33
2022-10-22T08:16:28.383Z,1006.30
2022-10-22T08:17:28.321Z,1006.28
2022-10-22T08:18:28.323Z,1006.31
2022-10-22T08:19:28.302Z,1006.34
2022-10-22T08:20:28.281Z,1006.30
2022-10-22T08:21:28.299Z,1006.33
2022-10-22T08:22:28.264Z,1006.27
2022-10-22T08:23:28.686Z,1006.31
2022-10-22T08:24:28.254Z,1006.35
2022-10-22T08:25:28.225Z,1006.32
2022-10-22T08:26:28.222Z,1006.40
2022-10-22T08:27:28.231Z,1006.34
2022-10-22T08:28:28.246Z,1006.34
2022-10-22T08:29:28.178Z,1006.34
2022-10-22T08:30:28.170Z,1006.37
2022-10-22T08:31:28.173Z,1006.39
2022-10-22T08:32:28.184Z,1006.37
2022-10-22T08:33:28.135Z,1006.37
2022-10-22T08:34:28.134Z,1006.43
2022-10-22T08:35:28.137Z,1006.45
2022-10-22T08:36:28.108Z,1006.46
2022-10-22T08:37:28.114Z,1006.45
2022-10-22T08:38:28.112Z,1006.45
2022-10-22T08:39:28.082Z,1006.47
2022-10-22T08:40:28.085Z,1006.50
2022-10-22T08:41:28.052Z,1006.53
2022-10-22T08:42:28.054Z,1006.54
2022-10-22T08:43:28.022Z,1006.56
2022-10-22T08:44:28.036Z,1006.61
2022-10-22T08:45:28.016Z,1006.58
2022-10-22T08:46:28.017Z,1006.59
2022-10-22T08:47:27.993Z,1006.58
2022-10-22T08:48:27.973Z,1006.57
2022-10-22T08:49:27.984Z,1006.56
2022-10-22T08:50:27.959Z,1006.58
2022-10-22T08:51:27.981Z,1006.61
2022-10-22T08:52:27.930Z,1006.62
2022-10-22T08:53:27.919Z,1006.60
2022-10-22T08:54:27.903Z,1006.66
2022-10-22T08:55:28.002Z,1006.65
2022-10-22T08:56:27.892Z,1006.69
2022-10-22T08:57:27.948Z,1006.68
2022-10-22T08:58:27.870Z,1006.69
2022-10-22T08:59:27.866Z,1006.63
2022-10-22T09:00:27.872Z,1006.64
2022-10-22T09:01:27.857Z,1006.66
2022-10-22T09:02:27.820Z,1006.68
2022-10-22T09:03:27.807Z,1006.67
2022-10-22T09:04:27.816Z,1006.69
2022-10-22T09:05:27.806Z,1006.68
2022-10-22T09:06:27.774Z,1006.74
2022-10-22T09:07:27.774Z,1006.71
2022-10-22T09:08:27.749Z,1006.72
2022-10-22T09:09:27.775Z,1006.74
2022-10-22T09:10:27.818Z,1006.75
2022-10-22T09:11:27.719Z,1006.76
2022-10-22T09:12:27.701Z,1006.78
2022-10-22T09:13:27.715Z,1006.76
2022-10-22T09:14:27.707Z,1006.76
2022-10-22T09:15:27.700Z,1006.74
2022-10-22T09:16:27.703Z,1006.78
2022-10-22T09:17:27.658Z,1006.82
2022-10-22T09:18:27.665Z,1006.80
2022-10-22T09:19:27.633Z,1006.83
2022-10-22T09:20:27.625Z,1006.83
2022-10-22T09:21:27.629Z,1006.85
2022-10-22T09:22:27.689Z,1006.83
2022-10-22T09:23:27.601Z,1006.84
2022-10-22T09:24:29.596Z,1006.83
2022-10-22T09:25:27.572Z,1006.86
2022-10-22T09:26:27.555Z,1006.87
2022-10-22T09:27:27.564Z,1006.85
2022-10-22T09:28:27.568Z,1006.89
2022-10-22T09:29:27.543Z,1006.89
2022-10-22T09:30:27.518Z,1006.93
2022-10-22T09:31:27.543Z,1006.90
2022-10-22T09:32:27.538Z,1006.87
2022-10-22T09:33:27.476Z,1006.90
2022-10-22T09:34:27.477Z,1006.89
2022-10-22T09:35:27.456Z,1006.94
2022-10-22T09:36:27.438Z,1006.96
2022-10-22T09:37:27.448Z,1006.96
2022-10-22T09:38:27.454Z,1006.97
2022-10-22T09:39:27.421Z,1006.98
2022-10-22T09:40:27.390Z,1006.95
2022-10-22T09:41:27.385Z,1006.92
2022-10-22T09:42:27.385Z,1006.96
2022-10-22T09:43:27.395Z,1006.89
2022-10-22T09:44:27.363Z,1006.87
2022-10-22T09:45:27.348Z,1006.90
2022-10-22T09:46:27.332Z,1006.89
2022-10-22T09:47:42.714Z,1006.88
2022-10-22T09:48:28.345Z,1006.82
2022-10-22T09:49:27.304Z,1006.87
2022-10-22T09:50:27.288Z,1006.93
2022-10-22T09:51:27.302Z,1006.87
2022-10-22T09:52:27.291Z,1006.87
2022-10-22T09:53:27.283Z,1006.91
2022-10-22T09:54:27.256Z,1006.90
2022-10-22T09:55:27.241Z,1006.94
2022-10-22T09:56:27.261Z,1006.92
2022-10-22T09:57:27.262Z,1006.97
2022-10-22T09:58:27.208Z,1006.96
2022-10-22T09:59:27.187Z,1006.95
2022-10-22T10:00:27.204Z,1006.98
2022-10-22T10:01:27.210Z,1007.00
2022-10-22T10:02:42.502Z,1007.00
2022-10-22T10:03:28.162Z,1007.05
2022-10-22T10:04:27.171Z,1007.05
2022-10-22T10:05:27.115Z,1007.04
2022-10-22T10:06:27.139Z,1007.11
2022-10-22T10:07:27.113Z,1007.04
2022-10-22T10:08:27.090Z,1007.04
2022-10-22T10:09:27.078Z,1007.07
2022-10-22T10:10:27.101Z,1007.04
2022-10-22T10:11:29.265Z,1007.03
2022-10-22T10:12:27.097Z,1007.06
2022-10-22T10:13:27.043Z,1007.04
2022-10-22T10:14:27.023Z,1007.07
2022-10-22T10:15:27.044Z,1007.09
2022-10-22T10:16:27.025Z,1007.09
2022-10-22T10:17:27.012Z,1007.09
2022-10-22T10:18:26.975Z,1007.06
2022-10-22T10:19:26.960Z,1007.10
2022-10-22T10:20:26.995Z,1007.09
2022-10-22T10:21:26.966Z,1007.09
2022-10-22T10:22:26.943Z,1007.05
2022-10-22T10:23:26.999Z,1007.08
2022-10-22T10:24:26.905Z,1007.09
2022-10-22T10:25:26.923Z,1007.14
2022-10-22T10:26:26.903Z,1007.12
2022-10-22T10:27:26.875Z,1007.13
2022-10-22T10:28:26.862Z,1007.12
2022-10-22T10:29:26.973Z,1007.14
2022-10-22T10:30:26.857Z,1007.12
2022-10-22T10:31:26.842Z,1007.15
2022-10-22T10:32:26.821Z,1007.21
2022-10-22T10:33:26.845Z,1007.19
2022-10-22T10:34:26.845Z,1007.20
2022-10-22T10:35:26.814Z,1007.19
2022-10-22T10:36:26.815Z,1007.28
2022-10-22T10:37:26.769Z,1007.25
2022-10-22T10:38:29.533Z,1007.27
2022-10-22T10:39:26.790Z,1007.29
2022-10-22T10:40:26.755Z,1007.33
2022-10-22T10:41:27.061Z,1007.31
2022-10-22T10:42:26.723Z,1007.33
2022-10-22T10:43:26.699Z,1007.33
2022-10-22T10:44:26.716Z,1007.32
2022-10-22T10:45:26.699Z,1007.33
2022-10-22T10:46:26.676Z,1007.30
2022-10-22T10:47:26.647Z,1007.33
2022-10-22T10:48:37.206Z,1007.31
2022-10-22T10:49:34.419Z,1007.26
2022-10-22T10:50:26.646Z,1007.27
2022-10-22T10:51:26.612Z,1007.26
2022-10-22T10:52:26.631Z,1007.32
2022-10-22T10:53:26.583Z,1007.27
2022-10-22T10:54:26.693Z,1007.26
2022-10-22T10:55:26.559Z,1007.23
2022-10-22T10:56:26.555Z,1007.24
2022-10-22T10:57:26.547Z,1007.23
2022-10-22T10:58:26.539Z,1007.26
2022-10-22T10:59:26.518Z,1007.21
2022-10-22T11:00:26.529Z,1007.22
2022-10-22T11:01:26.573Z,1007.27
2022-10-22T11:02:26.513Z,1007.25
2022-10-22T11:03:26.478Z,1007.29
2022-10-22T11:04:26.468Z,1007.30
2022-10-22T11:05:26.464Z,1007.27
2022-10-22T11:06:26.493Z,1007.31
2022-10-22T11:07:34.965Z,1007.34
2022-10-22T11:08:27.464Z,1007.33
2022-10-22T11:09:26.440Z,1007.31
2022-10-22T11:10:26.408Z,1007.32
2022-10-22T11:11:26.423Z,1007.32
2022-10-22T11:12:26.401Z,1007.29
2022-10-22T11:13:26.369Z,1007.27
2022-10-22T11:14:27.921Z,1007.30
2022-10-22T11:15:26.349Z,1007.32
2022-10-22T11:16:26.371Z,1007.31
2022-10-22T11:17:26.328Z,1007.32
2022-10-22T11:18:26.307Z,1007.32
2022-10-22T11:19:46.099Z,1007.32
2022-10-22T11:20:27.292Z,1007.34
2022-10-22T11:21:26.616Z,1007.33
2022-10-22T11:22:27.047Z,1007.33
2022-10-22T11:23:26.319Z,1007.27
2022-10-22T11:24:26.264Z,1007.30
2022-10-22T11:25:26.278Z,1007.30
2022-10-22T11:26:26.254Z,1007.31
2022-10-22T11:27:26.213Z,1007.31
2022-10-22T11:28:26.226Z,1007.28
2022-10-22T11:29:28.259Z,1007.31
2022-10-22T11:30:26.220Z,1007.39
2022-10-22T11:31:26.168Z,1007.33
2022-10-22T11:32:26.160Z,1007.35
2022-10-22T11:33:26.146Z,1007.43
2022-10-22T11:34:33.563Z,1007.33
2022-10-22T11:35:27.130Z,1007.36
2022-10-22T11:36:26.185Z,1007.35
2022-10-22T11:37:26.097Z,1007.36
2022-10-22T11:38:26.114Z,1007.38
2022-10-22T11:39:26.137Z,1007.34
2022-10-22T11:40:26.135Z,1007.33
2022-10-22T11:41:26.091Z,1007.36
2022-10-22T11:42:26.051Z,1007.32
2022-10-22T11:43:26.056Z,1007.32
2022-10-22T11:44:26.072Z,1007.35
2022-10-22T11:45:26.032Z,1007.37
2022-10-22T11:46:26.007Z,1007.38
2022-10-22T11:47:25.993Z,1007.39
2022-10-22T11:48:25.995Z,1007.36
2022-10-22T11:49:26.007Z,1007.41
2022-10-22T11:50:25.958Z,1007.45
2022-10-22T11:51:25.959Z,1007.41
2022-10-22T11:52:25.969Z,1007.37
2022-10-22T11:53:25.934Z,1007.39
2022-10-22T11:54:25.933Z,1007.45
2022-10-22T11:55:25.914Z,1007.37
2022-10-22T11:56:25.918Z,1007.30
2022-10-22T11:57:25.897Z,1007.34
2022-10-22T11:58:25.899Z,1007.36
2022-10-22T11:59:25.875Z,1007.37
2022-10-22T12:00:25.860Z,1007.37
2022-10-22T12:01:25.948Z,1007.32
2022-10-22T12:02:25.852Z,1007.25
2022-10-22T12:03:25.857Z,1007.35
2022-10-22T12:04:25.869Z,1007.27
2022-10-22T12:05:25.810Z,1007.51
2022-10-22T12:06:25.842Z,1007.41
2022-10-22T12:07:25.779Z,1007.42
2022-10-22T12:08:25.786Z,1007.53